createdAt,value
2018-12-16T00:04:37.753Z,100789.34
2018-12-16T00:09:41.049Z,100777.03
2018-12-16T00:14:44.365Z,100775.06
2018-12-16T00:19:47.690Z,100763.83
2018-12-16T00:24:51.014Z,100757.92
2018-12-16T00:29:54.325Z,100748.30
2018-12-16T00:34:57.675Z,100749.33
2018-12-16T00:40:01.098Z,100736.98
2018-12-16T00:45:04.837Z,100730.53
2018-12-16T00:50:08.136Z,100727.36
2018-12-16T00:55:11.426Z,100716.00
2018-12-16T01:00:15.525Z,100707.95
2018-12-16T01:05:18.852Z,100698.80
2018-12-16T01:10:22.165Z,100695.38
2018-12-16T01:15:25.481Z,100698.19
2018-12-16T01:20:28.813Z,100697.30
2018-12-16T01:25:32.128Z,100687.53
2018-12-16T01:30:35.441Z,100686.95
2018-12-16T01:35:38.746Z,100680.25
2018-12-16T01:40:42.062Z,100687.16
2018-12-16T01:45:45.375Z,100672.68
2018-12-16T01:50:48.689Z,100671.22
2018-12-16T01:55:51.993Z,100664.71
2018-12-16T02:00:55.297Z,100651.09
2018-12-16T02:05:58.604Z,100643.23
2018-12-16T02:11:01.921Z,100640.55
2018-12-16T02:16:05.262Z,100638.64
2018-12-16T02:21:08.562Z,100629.50
2018-12-16T02:26:11.877Z,100633.64
2018-12-16T02:31:15.188Z,100629.61
2018-12-16T02:36:18.511Z,100630.09
2018-12-16T02:41:21.813Z,100612.16
2018-12-16T02:46:25.117Z,100593.86
2018-12-16T02:51:28.426Z,100580.52
2018-12-16T02:56:32.766Z,100569.70
2018-12-16T03:01:36.088Z,100563.48
2018-12-16T03:06:39.382Z,100555.91
2018-12-16T03:11:42.685Z,100548.11
2018-12-16T03:16:45.995Z,100539.08
2018-12-16T03:21:49.302Z,100537.12
2018-12-16T03:26:52.601Z,100532.73
2018-12-16T03:31:55.916Z,100525.17
2018-12-16T03:36:59.222Z,100515.04
2018-12-16T03:42:02.528Z,100497.47
2018-12-16T03:47:05.834Z,100505.16
2018-12-16T03:52:09.151Z,100496.98
2018-12-16T03:57:12.477Z,100495.03
2018-12-16T04:02:15.806Z,100484.41
2018-12-16T04:07:19.121Z,100468.06
2018-12-16T04:12:22.440Z,100451.95
2018-12-16T04:17:25.753Z,100438.29
2018-12-16T04:22:29.064Z,100437.44
2018-12-16T04:27:32.394Z,100439.27
2018-12-16T04:32:35.706Z,100431.70
2018-12-16T04:37:39.027Z,100430.73
2018-12-16T04:42:42.336Z,100431.21
2018-12-16T04:47:45.648Z,100427.19
2018-12-16T04:52:48.953Z,100422.91
2018-12-16T04:57:52.266Z,100416.20
2018-12-16T05:02:55.581Z,100406.80
2018-12-16T05:07:58.970Z,100383.63
2018-12-16T05:13:02.285Z,100371.55
2018-12-16T05:18:05.596Z,100364.34
2018-12-16T05:23:08.902Z,100364.84
2018-12-16T05:28:12.217Z,100366.81
2018-12-16T05:33:15.534Z,100374.95
2018-12-16T05:38:18.844Z,100385.33
2018-12-16T05:43:22.150Z,100388.63
2018-12-16T05:48:25.445Z,100378.87
2018-12-16T05:53:28.857Z,100368.02
2018-12-16T05:58:32.142Z,100366.67
2018-12-16T06:03:35.430Z,100370.80
2018-12-16T06:08:38.737Z,100365.06
2018-12-16T06:13:42.039Z,100353.59
2018-12-16T06:18:45.454Z,100336.16
2018-12-16T06:23:55.351Z,100333.95
2018-12-16T06:28:54.057Z,100333.97
2018-12-16T06:33:57.358Z,100330.66
2018-12-16T06:39:00.663Z,100318.97
2018-12-16T06:44:03.969Z,100298.34
2018-12-16T06:49:07.278Z,100293.59
2018-12-16T06:54:10.569Z,100290.30
2018-12-16T06:59:13.853Z,100297.85
2018-12-16T07:04:17.145Z,100297.73
2018-12-16T07:09:20.435Z,100287.72
2018-12-16T07:14:23.735Z,100293.08
2018-12-16T07:19:27.026Z,100299.68
2018-12-16T07:24:31.413Z,100301.85
2018-12-16T07:29:34.701Z,100302.23
2018-12-16T07:34:38.020Z,100295.14
2018-12-16T07:39:41.325Z,100290.84
2018-12-16T07:44:44.639Z,100296.31
2018-12-16T07:49:48.035Z,100297.14
2018-12-16T07:54:51.334Z,100297.16
2018-12-16T07:59:54.627Z,100289.26
2018-12-16T08:04:57.983Z,100293.08
2018-12-16T08:10:01.299Z,100307.63
2018-12-16T08:15:06.734Z,100303.31
2018-12-16T08:20:10.057Z,100280.15
2018-12-16T08:25:13.362Z,100259.08
2018-12-16T08:30:16.665Z,100266.12
2018-12-16T08:35:19.971Z,100271.50
2018-12-16T08:40:23.293Z,100259.62
2018-12-16T08:45:26.605Z,100269.80
2018-12-16T08:50:29.901Z,100255.20
2018-12-16T08:55:33.201Z,100251.25
2018-12-16T09:00:36.505Z,100250.03
2018-12-16T09:05:39.809Z,100245.28
2018-12-16T09:10:43.112Z,100255.39
2018-12-16T09:15:46.524Z,100235.41
2018-12-16T09:20:49.829Z,100234.65
2018-12-16T09:25:53.130Z,100237.45
2018-12-16T09:30:58.155Z,100219.15
2018-12-16T09:36:01.686Z,100210.86
2018-12-16T09:41:04.994Z,100215.95
2018-12-16T09:46:08.357Z,100218.05
2018-12-16T09:51:11.687Z,100223.90
2018-12-16T09:56:15.012Z,100214.55
2018-12-16T10:01:18.433Z,100208.81
2018-12-16T10:06:21.784Z,100206.78
2018-12-16T10:11:25.100Z,100208.00
2018-12-16T10:16:28.397Z,100199.81
2018-12-16T10:21:31.710Z,100191.17
2018-12-16T10:26:35.082Z,100183.58
2018-12-16T10:31:38.398Z,100165.67
2018-12-16T10:36:41.700Z,100156.05
2018-12-16T10:41:45.019Z,100162.84
2018-12-16T10:46:48.437Z,100173.45
2018-12-16T10:51:51.742Z,100153.34
2018-12-16T10:56:55.049Z,100137.27
2018-12-16T11:01:58.370Z,100131.56
2018-12-16T11:07:01.685Z,100117.42
2018-12-16T11:12:05.153Z,100115.21
2018-12-16T11:17:09.397Z,100123.89
2018-12-16T11:22:12.693Z,100121.44
2018-12-16T11:27:16.018Z,100121.44
2018-12-16T11:32:19.321Z,100105.34
2018-12-16T11:37:22.639Z,100095.71
2018-12-16T11:42:25.950Z,100088.05
2018-12-16T11:47:29.258Z,100087.20
2018-12-16T11:52:32.570Z,100071.23
2018-12-16T11:57:35.883Z,100067.31
2018-12-16T12:02:39.202Z,100076.60
2018-12-16T12:07:42.509Z,100067.70
2018-12-16T12:12:45.875Z,100058.56
2018-12-16T12:17:49.199Z,100056.25
2018-12-16T12:22:52.593Z,100061.23
2018-12-16T12:27:55.925Z,100045.52
2018-12-16T12:32:59.376Z,100034.55
2018-12-16T12:38:02.695Z,100025.39
2018-12-16T12:43:06.013Z,100026.63
2018-12-16T12:48:09.333Z,100023.44
2018-12-16T12:53:12.658Z,100025.32
2018-12-16T12:58:15.994Z,100027.84
2018-12-16T13:03:19.311Z,100026.19
2018-12-16T13:08:22.613Z,100024.08
2018-12-16T13:13:25.922Z,100016.73
2018-12-16T13:18:29.228Z,100008.59
2018-12-16T13:23:32.543Z,100005.41
2018-12-16T13:28:35.857Z,100005.95
2018-12-16T13:33:39.178Z,100009.27
2018-12-16T13:38:42.481Z,100007.16
2018-12-16T13:43:45.782Z,100009.00
2018-12-16T13:48:49.089Z,100013.02
2018-12-16T13:53:54.083Z,100016.06
2018-12-16T13:58:57.398Z,100017.18
2018-12-16T14:04:07.042Z,100017.94
2018-12-16T14:09:10.345Z,100020.13
2018-12-16T14:14:13.646Z,100014.50
2018-12-16T14:19:16.963Z,100031.34
2018-12-16T14:24:20.286Z,100028.89
2018-12-16T14:29:23.594Z,100032.42
2018-12-16T14:34:26.900Z,100027.33
2018-12-16T14:39:30.201Z,100030.98
2018-12-16T14:44:33.506Z,100025.88
2018-12-16T14:49:36.820Z,100035.38
2018-12-16T14:54:40.201Z,100038.81
2018-12-16T14:59:43.556Z,100035.38
2018-12-16T15:04:46.938Z,100040.61
2018-12-16T15:09:50.241Z,100035.14
2018-12-16T15:14:53.537Z,100033.67
2018-12-16T15:19:56.857Z,100040.64
2018-12-16T15:25:00.161Z,100036.91
2018-12-16T15:30:03.689Z,100033.64
2018-12-16T15:35:06.997Z,100035.38
2018-12-16T15:40:10.475Z,100042.31
2018-12-16T15:45:14.218Z,100036.48
2018-12-16T15:50:17.717Z,100043.55
2018-12-16T15:55:21.021Z,100044.53
2018-12-16T16:00:26.138Z,100045.28
2018-12-16T16:05:29.462Z,100058.08
2018-12-16T16:10:33.289Z,100058.69
2018-12-16T16:15:36.631Z,100064.88
2018-12-16T16:20:39.928Z,100063.34
2018-12-16T16:25:43.222Z,100063.31
2018-12-16T16:30:46.522Z,100064.78
2018-12-16T16:35:49.825Z,100066.02
2018-12-16T16:40:53.494Z,100065.27
2018-12-16T16:45:56.793Z,100065.14
2018-12-16T16:51:00.118Z,100075.15
2018-12-16T16:56:03.613Z,100081.47
2018-12-16T17:01:06.950Z,100079.28
2018-12-16T17:06:10.329Z,100077.34
2018-12-16T17:11:14.121Z,100086.61
2018-12-16T17:16:17.497Z,100088.30
2018-12-16T17:21:20.821Z,100093.30
2018-12-16T17:26:29.851Z,100089.91
2018-12-16T17:31:29.451Z,100086.34
2018-12-16T17:36:32.776Z,100088.33
2018-12-16T17:41:36.110Z,100101.34
2018-12-16T17:46:39.430Z,100113.79
2018-12-16T17:51:42.733Z,100111.73
2018-12-16T17:56:46.044Z,100115.73
2018-12-16T18:01:49.620Z,100121.84
2018-12-16T18:06:52.949Z,100119.05
2018-12-16T18:11:56.250Z,100116.46
2018-12-16T18:17:00.538Z,100121.23
2018-12-16T18:22:03.861Z,100108.43
2018-12-16T18:27:07.182Z,100128.77
2018-12-16T18:32:10.494Z,100120.10
2018-12-16T18:37:13.838Z,100127.43
2018-12-16T18:42:17.154Z,100127.91
2018-12-16T18:47:20.462Z,100139.50
2018-12-16T18:52:23.771Z,100140.60
2018-12-16T18:57:27.106Z,100140.25
2018-12-16T19:02:30.412Z,100145.38
2018-12-16T19:07:33.717Z,100142.94
2018-12-16T19:12:37.049Z,100133.80
2018-12-16T19:17:40.437Z,100142.08
2018-12-16T19:22:43.749Z,100127.19
2018-12-16T19:27:47.096Z,100132.69
2018-12-16T19:32:50.402Z,100127.08
2018-12-16T19:37:53.725Z,100129.02
2018-12-16T19:42:57.241Z,100123.16
2018-12-16T19:48:00.545Z,100114.52
2018-12-16T19:53:03.849Z,100126.34
2018-12-16T19:58:08.138Z,100138.28
2018-12-16T20:03:11.469Z,100146.72
2018-12-16T20:08:14.760Z,100152.81
2018-12-16T20:13:18.995Z,100156.34
2018-12-16T20:18:22.297Z,100156.47
2018-12-16T20:23:25.590Z,100150.13
2018-12-16T20:28:28.921Z,100160.73
2018-12-16T20:33:32.241Z,100163.43
2018-12-16T20:38:35.554Z,100168.28
2018-12-16T20:43:38.870Z,100169.27
2018-12-16T20:48:42.184Z,100178.06
2018-12-16T20:53:45.506Z,100181.47
2018-12-16T20:58:48.824Z,100181.95
2018-12-16T21:03:52.135Z,100175.23
2018-12-16T21:08:55.458Z,100182.20
2018-12-16T21:14:04.133Z,100185.85
2018-12-16T21:19:07.449Z,100183.65
2018-12-16T21:24:10.846Z,100180.38
2018-12-16T21:29:14.150Z,100175.13
2018-12-16T21:34:17.445Z,100184.39
2018-12-16T21:39:20.917Z,100195.23
2018-12-16T21:44:24.230Z,100196.34
2018-12-16T21:49:27.533Z,100199.39
2018-12-16T21:54:30.856Z,100200.50
2018-12-16T21:59:34.439Z,100199.53
2018-12-16T22:04:37.801Z,100197.69
2018-12-16T22:09:41.185Z,100181.22
2018-12-16T22:14:44.501Z,100191.61
2018-12-16T22:19:47.817Z,100188.53
2018-12-16T22:24:51.123Z,100194.03
2018-12-16T22:29:54.436Z,100191.84
2018-12-16T22:34:57.741Z,100191.12
2018-12-16T22:40:01.054Z,100191.97
2018-12-16T22:45:05.805Z,100195.25
2018-12-16T22:50:09.118Z,100210.37
2018-12-16T22:55:12.437Z,100215.60
2018-12-16T23:00:17.823Z,100217.80
2018-12-16T23:05:21.145Z,100217.44
2018-12-16T23:10:24.445Z,100226.45
2018-12-16T23:15:27.750Z,100232.80
2018-12-16T23:20:31.058Z,100240.98
2018-12-16T23:25:34.372Z,100236.73
2018-12-16T23:30:37.773Z,100238.19
2018-12-16T23:35:41.144Z,100239.03
2018-12-16T23:40:44.451Z,100243.66
2018-12-16T23:45:47.753Z,100249.29
2018-12-16T23:50:51.370Z,100255.28
2018-12-16T23:55:54.687Z,100259.89
